Time;durP1;ratioP1;P1;durP2;ratioP2;P2;SDS_P1;SDS_P2;PMS_P1;PMS_P2;Temp;Humidity;BMP_temperature;BMP_pressure;BME280_temperature;BME280_humidity;BME280_pressure;Samples;Min_cycle;Max_cycle;Signal;HPM_P1;HPM_P2
2022/03/05 00:01:17;;;;;;;15.10;7.95;;;3.80;50.50;;;;;;5008277;28;20050;-48
2022/03/05 00:03:45;;;;;;;15.90;8.60;;;3.70;50.60;;;;;;5000164;28;20104;-46
2022/03/05 00:06:13;;;;;;;16.85;9.38;;;3.70;50.70;;;;;;5003325;28;20038;-47
2022/03/05 00:08:41;;;;;;;15.00;8.25;;;3.70;50.70;;;;;;4999678;28;20104;-48
2022/03/05 00:11:08;;;;;;;17.13;8.73;;;3.70;50.80;;;;;;4992403;28;20039;-51
2022/03/05 00:13:38;;;;;;;20.83;10.10;;;3.60;50.80;;;;;;4983544;28;21060;-48
2022/03/05 00:16:04;;;;;;;15.80;8.98;;;3.60;50.70;;;;;;4992168;28;20125;-45
2022/03/05 00:18:31;;;;;;;17.95;9.52;;;3.60;50.60;;;;;;4993880;28;20062;-44
2022/03/05 00:20:58;;;;;;;17.58;9.77;;;3.60;50.80;;;;;;4991973;28;20042;-46
2022/03/05 00:23:25;;;;;;;15.40;9.07;;;3.50;50.80;;;;;;5021847;23;20053;-55
2022/03/05 00:25:52;;;;;;;17.40;9.88;;;3.50;50.80;;;;;;5027420;28;20111;-53
2022/03/05 00:28:19;;;;;;;19.75;10.70;;;3.50;50.90;;;;;;5030904;28;20033;-50
2022/03/05 00:30:46;;;;;;;18.70;10.43;;;3.50;51.00;;;;;;5010108;28;20050;-50
2022/03/05 00:33:12;;;;;;;17.70;9.98;;;3.40;51.00;;;;;;5026159;28;20046;-52
2022/03/05 00:35:40;;;;;;;16.42;8.88;;;3.40;51.00;;;;;;5004377;28;20092;-55
2022/03/05 00:38:07;;;;;;;17.63;9.63;;;3.40;51.00;;;;;;5004518;28;20081;-51
2022/03/05 00:40:34;;;;;;;22.83;10.75;;;3.40;51.20;;;;;;4995424;28;20048;-52
2022/03/05 00:43:01;;;;;;;16.23;10.07;;;3.40;51.20;;;;;;5003179;28;20058;-50
2022/03/05 00:45:27;;;;;;;18.13;9.57;;;3.40;51.30;;;;;;4992927;28;20046;-52
2022/03/05 00:47:54;;;;;;;21.23;10.63;;;3.40;51.20;;;;;;4993296;28;20124;-50
2022/03/05 00:50:23;;;;;;;17.85;9.20;;;3.40;51.10;;;;;;4995258;28;20063;-53
2022/03/05 00:52:49;;;;;;;23.48;10.43;;;3.30;51.20;;;;;;5006214;28;20046;-51
2022/03/05 00:55:16;;;;;;;17.42;9.05;;;3.30;51.20;;;;;;5011124;28;20598;-50
2022/03/05 00:57:43;;;;;;;16.88;8.88;;;3.30;51.20;;;;;;5012753;28;20050;-52
2022/03/05 01:00:13;;;;;;;18.15;9.00;;;3.30;51.20;;;;;;5001724;28;20069;-51
2022/03/05 01:02:40;;;;;;;17.08;8.80;;;3.30;51.40;;;;;;5007219;28;20042;-51
2022/03/05 01:05:09;;;;;;;19.70;10.20;;;3.30;51.30;;;;;;5010039;28;20042;-54
2022/03/05 01:07:39;;;;;;;16.40;8.73;;;3.30;51.30;;;;;;5005379;28;20045;-50
2022/03/05 01:10:07;;;;;;;17.15;9.07;;;3.30;51.20;;;;;;5000402;28;20119;-52
2022/03/05 01:12:35;;;;;;;14.13;8.77;;;3.20;51.30;;;;;;4993112;28;20086;-50
2022/03/05 01:15:06;;;;;;;18.25;9.25;;;3.20;51.40;;;;;;4989593;28;20074;-52
2022/03/05 01:17:32;;;;;;;16.85;8.68;;;3.20;51.50;;;;;;4988387;28;20042;-50
2022/03/05 01:19:59;;;;;;;17.40;8.45;;;3.20;51.50;;;;;;5008205;28;20091;-49
2022/03/05 01:22:26;;;;;;;19.70;9.50;;;3.10;51.50;;;;;;4996533;28;20556;-49
2022/03/05 01:24:53;;;;;;;19.45;10.00;;;3.10;51.50;;;;;;5011579;28;20042;-50
2022/03/05 01:27:22;;;;;;;14.57;8.57;;;3.10;51.50;;;;;;4999433;28;20038;-51
2022/03/05 01:29:49;;;;;;;17.08;8.57;;;3.10;51.60;;;;;;5009996;28;20050;-54
2022/03/05 01:32:16;;;;;;;18.55;8.93;;;3.10;51.60;;;;;;5003833;28;20046;-49
2022/03/05 01:34:43;;;;;;;18.17;9.85;;;3.10;51.70;;;;;;5006234;28;20594;-50
2022/03/05 01:37:10;;;;;;;18.45;10.13;;;3.00;51.70;;;;;;5006988;28;20407;-50
2022/03/05 01:39:38;;;;;;;18.83;9.90;;;3.00;51.70;;;;;;5000189;28;20076;-50
2022/03/05 01:42:05;;;;;;;15.43;9.10;;;3.00;51.80;;;;;;4992154;28;20572;-50
2022/03/05 01:44:31;;;;;;;19.42;9.25;;;3.00;51.80;;;;;;4994390;28;20061;-49
2022/03/05 01:47:02;;;;;;;19.05;8.63;;;3.00;51.90;;;;;;4986699;28;20120;-50
2022/03/05 01:49:30;;;;;;;17.98;9.38;;;3.00;52.00;;;;;;4984423;28;20042;-49
2022/03/05 01:51:57;;;;;;;19.33;10.00;;;2.90;51.90;;;;;;4992500;28;20046;-52
2022/03/05 01:54:25;;;;;;;17.90;9.40;;;2.90;52.00;;;;;;5000410;28;20087;-51
2022/03/05 01:56:54;;;;;;;22.40;10.75;;;2.90;52.00;;;;;;4996847;28;20061;-50
2022/03/05 01:59:21;;;;;;;16.15;9.10;;;2.90;52.10;;;;;;4991954;28;20105;-50
2022/03/05 02:01:48;;;;;;;18.63;9.93;;;2.90;52.10;;;;;;4992076;28;20299;-51
2022/03/05 02:04:18;;;;;;;15.95;8.48;;;2.90;52.10;;;;;;4991427;28;20545;-50
2022/03/05 02:06:44;;;;;;;19.50;10.18;;;2.90;52.10;;;;;;5008324;28;20070;-50
2022/03/05 02:09:11;;;;;;;18.88;10.13;;;2.90;52.20;;;;;;4992459;28;20066;-49
2022/03/05 02:11:39;;;;;;;17.55;9.20;;;2.90;52.20;;;;;;4990826;28;20042;-52
2022/03/05 02:14:07;;;;;;;17.67;9.55;;;2.80;52.30;;;;;;5007242;28;20048;-52
2022/03/05 02:16:34;;;;;;;20.58;10.23;;;2.80;52.20;;;;;;5004436;28;20101;-49
2022/03/05 02:19:03;;;;;;;18.55;10.40;;;2.80;52.30;;;;;;4991412;28;20049;-50
2022/03/05 02:21:30;;;;;;;18.27;9.40;;;2.80;52.30;;;;;;4989835;28;20125;-51
2022/03/05 02:23:57;;;;;;;16.25;9.05;;;2.80;52.30;;;;;;4995929;28;20108;-53
2022/03/05 02:26:23;;;;;;;18.23;10.27;;;2.80;52.40;;;;;;5007533;28;20042;-52
2022/03/05 02:28:50;;;;;;;19.25;9.57;;;2.70;52.30;;;;;;4999647;28;20065;-52
2022/03/05 02:31:17;;;;;;;16.50;9.65;;;2.70;52.40;;;;;;4991644;28;20096;-50
2022/03/05 02:33:45;;;;;;;17.63;9.27;;;2.70;52.40;;;;;;4999074;28;20506;-49
2022/03/05 02:36:12;;;;;;;18.50;9.93;;;2.70;52.40;;;;;;5001749;28;20518;-53
2022/03/05 02:38:39;;;;;;;18.90;9.35;;;2.70;52.50;;;;;;4997665;28;20038;-54
2022/03/05 02:41:06;;;;;;;20.42;10.68;;;2.70;52.60;;;;;;4993441;28;20038;-56
2022/03/05 02:43:33;;;;;;;17.98;9.02;;;2.60;52.50;;;;;;4996127;28;20049;-54
2022/03/05 02:46:00;;;;;;;18.00;9.63;;;2.60;52.60;;;;;;5002445;28;20046;-52
2022/03/05 02:48:26;;;;;;;20.35;9.85;;;2.60;52.60;;;;;;4972136;28;20050;-53
2022/03/05 02:50:53;;;;;;;21.15;10.13;;;2.60;52.60;;;;;;4987551;28;20452;-50
2022/03/05 02:53:20;;;;;;;19.55;9.07;;;2.50;52.50;;;;;;5007952;28;20092;-54
2022/03/05 02:55:47;;;;;;;20.83;10.25;;;2.50;52.70;;;;;;5004920;28;20394;-53
2022/03/05 02:58:14;;;;;;;17.95;8.90;;;2.50;52.70;;;;;;5004053;28;20066;-50
2022/03/05 03:00:41;;;;;;;19.35;10.38;;;2.50;52.80;;;;;;5001149;28;20046;-51
2022/03/05 03:03:08;;;;;;;19.48;9.23;;;2.50;52.80;;;;;;5005656;28;20136;-51
2022/03/05 03:05:35;;;;;;;22.23;10.40;;;2.40;52.70;;;;;;5003062;28;20046;-54
2022/03/05 03:08:02;;;;;;;16.05;9.05;;;2.40;52.80;;;;;;5002267;28;20034;-53
2022/03/05 03:10:29;;;;;;;21.48;9.93;;;2.40;52.70;;;;;;4990248;28;20041;-50
2022/03/05 03:12:58;;;;;;;19.02;9.57;;;2.40;52.70;;;;;;5008645;28;20058;-54
2022/03/05 03:15:26;;;;;;;20.10;9.02;;;2.40;52.80;;;;;;4996327;28;20524;-53
2022/03/05 03:17:53;;;;;;;19.33;9.15;;;2.30;52.70;;;;;;4987618;28;20479;-54
2022/03/05 03:20:29;;;;;;;19.85;9.38;;;2.30;52.80;;;;;;4999316;28;20073;-50
2022/03/05 03:22:56;;;;;;;15.32;8.63;;;2.30;53.40;;;;;;5006815;28;20038;-50
2022/03/05 03:25:23;;;;;;;18.65;9.25;;;2.30;52.90;;;;;;5013445;28;20073;-55
2022/03/05 03:27:52;;;;;;;19.83;9.98;;;2.30;52.90;;;;;;5005496;28;20034;-53
2022/03/05 03:30:19;;;;;;;18.63;10.50;;;2.20;53.00;;;;;;5008029;28;20130;-54
2022/03/05 03:32:47;;;;;;;19.23;9.68;;;2.20;53.00;;;;;;5009362;28;20041;-54
2022/03/05 03:35:16;;;;;;;17.90;9.93;;;2.20;53.00;;;;;;5003818;28;20046;-52
2022/03/05 03:37:44;;;;;;;21.05;9.52;;;2.20;53.10;;;;;;5006631;28;20050;-50
2022/03/05 03:40:13;;;;;;;18.52;10.05;;;2.20;53.10;;;;;;5007110;28;20414;-54
2022/03/05 03:42:40;;;;;;;20.17;10.55;;;2.20;53.10;;;;;;5005933;28;20038;-54
2022/03/05 03:45:08;;;;;;;22.77;11.38;;;2.10;53.10;;;;;;5013229;28;20057;-55
2022/03/05 03:47:35;;;;;;;19.05;9.55;;;2.10;53.10;;;;;;5004045;28;20041;-50
2022/03/05 03:50:04;;;;;;;22.90;10.27;;;2.10;53.00;;;;;;5005471;28;20092;-54
2022/03/05 03:52:31;;;;;;;18.25;10.52;;;2.10;53.10;;;;;;5014303;28;20077;-54
2022/03/05 03:54:58;;;;;;;19.48;10.77;;;2.10;53.10;;;;;;5000489;28;20046;-54
2022/03/05 03:57:24;;;;;;;24.10;11.15;;;2.00;53.10;;;;;;5000574;28;20046;-54
2022/03/05 03:59:52;;;;;;;24.45;10.73;;;2.10;53.20;;;;;;5013620;28;20395;-54
2022/03/05 04:02:20;;;;;;;23.27;11.23;;;2.00;53.20;;;;;;5005883;28;20421;-50
2022/03/05 04:04:48;;;;;;;23.27;10.80;;;2.00;53.30;;;;;;4998498;28;20058;-50
2022/03/05 04:10:04;;;;;;;26.02;11.23;;;2.00;53.30;;;;;;4993619;28;20050;-52
2022/03/05 04:12:31;;;;;;;24.30;11.20;;;2.00;53.30;;;;;;4994441;28;20042;-53
2022/03/05 04:14:58;;;;;;;25.50;11.00;;;2.00;53.30;;;;;;5000312;28;20068;-51
2022/03/05 04:17:24;;;;;;;27.23;11.88;;;2.00;53.30;;;;;;5001940;28;20521;-50
2022/03/05 04:19:51;;;;;;;26.90;12.55;;;1.90;53.40;;;;;;5005010;28;20046;-52
2022/03/05 04:22:18;;;;;;;28.15;12.32;;;1.90;53.50;;;;;;5013627;28;20073;-52
2022/03/05 04:24:44;;;;;;;27.55;11.48;;;1.90;53.60;;;;;;5010545;28;20046;-55
2022/03/05 04:27:11;;;;;;;26.58;11.95;;;1.90;53.50;;;;;;5005589;28;20073;-50
2022/03/05 04:29:38;;;;;;;26.63;11.23;;;1.90;53.60;;;;;;5008319;28;20569;-54
2022/03/05 04:32:05;;;;;;;22.00;11.23;;;1.90;53.60;;;;;;4993311;28;20043;-54
2022/03/05 04:34:32;;;;;;;23.77;10.20;;;1.90;53.60;;;;;;4992210;28;20035;-54
2022/03/05 04:36:59;;;;;;;25.83;11.85;;;1.90;53.70;;;;;;5009202;28;20405;-53
2022/03/05 04:39:26;;;;;;;25.65;12.20;;;1.80;53.60;;;;;;5004649;28;20039;-54
2022/03/05 04:41:53;;;;;;;26.40;11.75;;;1.80;53.60;;;;;;5000484;28;20042;-50
2022/03/05 04:44:19;;;;;;;21.95;11.00;;;1.80;53.70;;;;;;5006976;28;20034;-54
2022/03/05 04:46:46;;;;;;;29.05;12.55;;;1.80;53.70;;;;;;5004714;28;20475;-51
2022/03/05 04:49:16;;;;;;;26.45;11.77;;;1.80;53.80;;;;;;5001151;28;20038;-50
2022/03/05 04:51:43;;;;;;;28.75;14.15;;;1.80;53.80;;;;;;5003045;28;20472;-58
2022/03/05 04:54:10;;;;;;;25.00;11.60;;;1.70;53.80;;;;;;4983834;28;20456;-51
2022/03/05 04:56:37;;;;;;;28.35;13.18;;;1.70;53.90;;;;;;5006321;28;20049;-50
2022/03/05 04:59:05;;;;;;;28.15;11.45;;;1.70;53.90;;;;;;5003539;28;20050;-54
2022/03/05 05:01:31;;;;;;;26.40;13.18;;;1.70;53.90;;;;;;4997727;28;20042;-55
2022/03/05 05:03:59;;;;;;;28.92;12.55;;;1.70;53.90;;;;;;5005223;28;20506;-54
2022/03/05 05:06:26;;;;;;;28.60;12.45;;;1.70;54.00;;;;;;5003328;28;20541;-51
2022/03/05 05:08:52;;;;;;;27.10;12.98;;;1.70;54.10;;;;;;5003815;28;20066;-54
2022/03/05 05:11:23;;;;;;;28.27;12.90;;;1.70;54.20;;;;;;5000616;28;20038;-53
2022/03/05 05:13:50;;;;;;;27.08;12.45;;;1.70;54.30;;;;;;5007209;28;20055;-53
2022/03/05 05:16:17;;;;;;;33.65;13.73;;;1.60;54.20;;;;;;5000548;28;20052;-50
2022/03/05 05:19:24;;;;;;;29.38;13.32;;;1.60;54.30;;;;;;5001787;28;20556;-53
2022/03/05 05:21:31;;;;;;;29.25;12.30;;;1.60;54.20;;;;;;5002310;28;20050;-52
2022/03/05 05:23:58;;;;;;;28.95;12.85;;;1.60;54.20;;;;;;5003903;28;20031;-51
2022/03/05 05:26:24;;;;;;;31.40;14.15;;;1.60;54.20;;;;;;5002926;28;20038;-51
2022/03/05 05:28:51;;;;;;;29.40;14.75;;;1.60;54.30;;;;;;5002706;28;20042;-50
2022/03/05 05:31:19;;;;;;;26.60;12.98;;;1.60;54.30;;;;;;4987646;28;20084;-50
2022/03/05 05:33:45;;;;;;;28.15;14.88;;;1.60;54.30;;;;;;5006231;28;20054;-51
2022/03/05 05:36:13;;;;;;;30.52;13.82;;;1.60;54.30;;;;;;5009488;28;20068;-50
2022/03/05 05:38:40;;;;;;;36.50;14.30;;;1.60;54.30;;;;;;4998612;28;20057;-51
2022/03/05 05:41:07;;;;;;;30.17;15.77;;;1.60;54.20;;;;;;4999348;28;20050;-50
2022/03/05 05:43:36;;;;;;;31.40;14.38;;;1.60;54.40;;;;;;5006492;28;20134;-54
2022/03/05 05:46:03;;;;;;;31.83;15.48;;;1.60;54.50;;;;;;5007417;28;20077;-51
2022/03/05 05:48:49;;;;;;;29.00;13.88;;;1.50;54.50;;;;;;5001275;28;20066;-53
2022/03/05 05:51:17;;;;;;;35.15;15.90;;;1.50;54.50;;;;;;5005210;28;20442;-53
2022/03/05 05:53:44;;;;;;;33.65;14.35;;;1.60;54.80;;;;;;5003485;28;20046;-54
2022/03/05 05:56:10;;;;;;;38.97;15.85;;;1.60;54.80;;;;;;5010422;28;20104;-53
2022/03/05 05:58:40;;;;;;;36.05;15.90;;;1.50;54.80;;;;;;5006068;28;20058;-51
2022/03/05 06:01:07;;;;;;;34.25;16.05;;;1.60;55.10;;;;;;5003509;28;20069;-51
2022/03/05 06:03:34;;;;;;;34.83;16.45;;;1.50;54.70;;;;;;5010959;28;20076;-52
2022/03/05 06:06:12;;;;;;;42.38;17.92;;;1.50;54.90;;;;;;5108520;27;20440;-50
2022/03/05 06:08:39;;;;;;;36.72;15.23;;;1.50;54.90;;;;;;5104762;28;20040;-48
2022/03/05 06:11:06;;;;;;;39.58;15.25;;;1.50;55.00;;;;;;5116953;28;20036;-49
2022/03/05 06:13:35;;;;;;;37.80;18.20;;;1.50;55.30;;;;;;5120672;28;20036;-49
2022/03/05 06:16:02;;;;;;;44.80;17.23;;;1.50;55.30;;;;;;5117673;28;20056;-53
2022/03/05 06:18:29;;;;;;;39.88;18.17;;;1.60;55.50;;;;;;5102502;28;20119;-51
2022/03/05 06:20:56;;;;;;;38.75;18.02;;;1.60;55.60;;;;;;5104191;28;20098;-52
2022/03/05 06:23:23;;;;;;;38.65;17.67;;;1.60;55.50;;;;;;5101225;28;20421;-48
2022/03/05 06:25:51;;;;;;;43.45;18.15;;;1.60;56.20;;;;;;5092367;28;20600;-48
2022/03/05 06:28:18;;;;;;;41.60;15.50;;;1.60;55.60;;;;;;5104341;28;20102;-48
2022/03/05 06:30:45;;;;;;;38.70;18.23;;;1.60;55.70;;;;;;5116632;28;20097;-49
2022/03/05 06:33:12;;;;;;;36.83;17.67;;;1.60;55.70;;;;;;5126557;28;20074;-48
2022/03/05 06:35:42;;;;;;;39.55;17.67;;;1.60;55.70;;;;;;5098134;22;20492;-48
2022/03/05 06:38:09;;;;;;;42.33;17.55;;;1.60;55.70;;;;;;5067613;28;20048;-46
2022/03/05 06:40:35;;;;;;;44.90;18.17;;;1.60;55.90;;;;;;5067580;28;20060;-50
2022/03/05 06:43:03;;;;;;;39.85;18.45;;;1.60;56.10;;;;;;5061881;28;20099;-50
2022/03/05 06:45:29;;;;;;;41.45;18.17;;;1.70;56.40;;;;;;5067935;28;20078;-47
2022/03/05 06:47:56;;;;;;;40.00;16.63;;;1.70;56.60;;;;;;5083993;28;20400;-47
2022/03/05 06:50:25;;;;;;;43.65;18.05;;;1.70;56.70;;;;;;5099676;28;20027;-46
2022/03/05 06:52:52;;;;;;;46.20;19.05;;;1.80;56.80;;;;;;5107949;28;20039;-48
2022/03/05 06:55:24;;;;;;;46.63;19.45;;;1.80;56.70;;;;;;5097286;28;20055;-49
2022/03/05 06:57:51;;;;;;;38.67;17.15;;;1.80;56.60;;;;;;5092489;28;20077;-48
2022/03/05 07:00:20;;;;;;;38.97;17.67;;;1.90;56.60;;;;;;5097455;28;20047;-48
2022/03/05 07:02:47;;;;;;;45.55;19.73;;;1.90;56.60;;;;;;5089735;28;20040;-51
2022/03/05 07:05:15;;;;;;;54.90;19.40;;;1.90;56.60;;;;;;5083495;28;20036;-48
2022/03/05 07:07:42;;;;;;;49.15;19.48;;;2.00;56.80;;;;;;5088189;28;20047;-48
2022/03/05 07:10:09;;;;;;;46.05;21.10;;;2.00;56.90;;;;;;5063950;28;20044;-47
2022/03/05 07:12:39;;;;;;;47.88;19.75;;;2.10;57.30;;;;;;5083468;28;20123;-51
2022/03/05 07:15:07;;;;;;;49.25;21.50;;;2.10;57.50;;;;;;5082908;28;20052;-50
2022/03/05 07:17:34;;;;;;;49.22;20.15;;;2.10;57.60;;;;;;5078821;28;20036;-51
2022/03/05 07:20:01;;;;;;;43.58;18.95;;;2.20;57.90;;;;;;5083073;28;20040;-48
2022/03/05 07:22:28;;;;;;;52.25;19.65;;;2.20;58.10;;;;;;5084870;28;20399;-49
2022/03/05 07:24:54;;;;;;;47.08;21.13;;;2.30;58.20;;;;;;5075284;28;20123;-49
2022/03/05 07:27:21;;;;;;;44.58;18.38;;;2.30;58.40;;;;;;5081903;28;20412;-48
2022/03/05 07:29:48;;;;;;;43.15;17.88;;;2.40;58.50;;;;;;5076772;28;20110;-49
2022/03/05 07:32:15;;;;;;;46.80;19.77;;;2.50;58.60;;;;;;5076214;28;20068;-49
2022/03/05 07:34:44;;;;;;;44.20;19.48;;;2.60;58.70;;;;;;5079208;28;20052;-49
2022/03/05 07:37:14;;;;;;;45.00;18.50;;;2.60;58.70;;;;;;5071344;28;20064;-55
2022/03/05 07:39:41;;;;;;;47.13;20.58;;;2.70;58.80;;;;;;5028389;28;20041;-51
2022/03/05 07:42:09;;;;;;;42.58;17.83;;;2.60;59.00;;;;;;5056580;28;20043;-50
2022/03/05 07:44:36;;;;;;;50.17;21.33;;;2.80;59.00;;;;;;5059130;28;20125;-52
2022/03/05 07:47:04;;;;;;;46.88;20.48;;;2.90;59.00;;;;;;5067243;28;20492;-48
2022/03/05 07:49:30;;;;;;;46.67;19.83;;;2.90;59.00;;;;;;5055314;28;20119;-52
2022/03/05 07:51:57;;;;;;;44.03;19.15;;;3.00;59.00;;;;;;5066759;28;20036;-49
2022/03/05 07:54:24;;;;;;;38.80;17.67;;;3.10;59.00;;;;;;5053665;28;20041;-49
2022/03/05 07:56:51;;;;;;;43.97;19.02;;;3.10;58.90;;;;;;5068557;28;20029;-50
2022/03/05 07:59:18;;;;;;;38.35;18.95;;;3.20;59.10;;;;;;5053486;28;20040;-50
2022/03/05 08:01:45;;;;;;;43.03;18.92;;;3.30;59.10;;;;;;5066428;28;20079;-50
2022/03/05 08:04:13;;;;;;;45.65;19.52;;;3.30;59.00;;;;;;5058533;28;20650;-54
2022/03/05 08:06:39;;;;;;;45.10;17.35;;;3.40;59.00;;;;;;5065966;28;20036;-51
2022/03/05 08:09:06;;;;;;;43.00;16.60;;;3.50;59.00;;;;;;5058688;28;20048;-50
2022/03/05 08:11:33;;;;;;;39.33;18.15;;;3.50;58.90;;;;;;5068241;28;20545;-51
2022/03/05 08:13:59;;;;;;;41.42;17.90;;;3.60;58.90;;;;;;5055487;28;20041;-51
2022/03/05 08:16:27;;;;;;;39.13;16.88;;;3.60;58.80;;;;;;5063764;28;20068;-50
2022/03/05 08:18:56;;;;;;;44.88;18.73;;;3.60;58.80;;;;;;5055971;28;20098;-54
2022/03/05 08:21:26;;;;;;;34.45;16.25;;;3.70;58.80;;;;;;5069747;28;20427;-52
2022/03/05 08:23:54;;;;;;;39.20;18.05;;;3.70;58.90;;;;;;5064894;28;20045;-49
2022/03/05 08:26:21;;;;;;;38.42;16.52;;;3.80;58.90;;;;;;5061401;28;20044;-52
2022/03/05 08:28:48;;;;;;;38.13;16.92;;;3.80;58.80;;;;;;5052747;28;20033;-54
2022/03/05 08:31:15;;;;;;;36.20;16.92;;;3.90;58.70;;;;;;5068683;28;20030;-49
2022/03/05 08:33:42;;;;;;;43.53;17.95;;;3.90;58.70;;;;;;5060931;28;20064;-50
2022/03/05 08:36:09;;;;;;;40.40;17.92;;;4.00;58.70;;;;;;5061788;28;20063;-51
2022/03/05 08:38:36;;;;;;;40.85;17.50;;;4.00;58.70;;;;;;5058027;28;20509;-51
2022/03/05 08:41:04;;;;;;;41.78;18.42;;;4.10;58.70;;;;;;5060545;28;20561;-54
2022/03/05 08:43:30;;;;;;;36.38;16.83;;;4.10;58.60;;;;;;5055144;28;20060;-50
2022/03/05 08:46:01;;;;;;;41.67;18.83;;;4.20;58.50;;;;;;5060457;28;20086;-50
2022/03/05 08:48:28;;;;;;;37.22;15.98;;;4.20;58.60;;;;;;5058042;28;20118;-54
2022/03/05 08:50:55;;;;;;;42.78;17.63;;;4.30;58.60;;;;;;5067144;28;20558;-49
2022/03/05 08:53:22;;;;;;;37.67;16.38;;;4.30;58.40;;;;;;5044444;28;20076;-53
2022/03/05 08:55:49;;;;;;;40.92;17.60;;;4.40;58.40;;;;;;5054369;28;20053;-52
2022/03/05 08:58:15;;;;;;;43.25;18.15;;;4.40;58.40;;;;;;5055968;28;20033;-53
2022/03/05 09:00:42;;;;;;;36.30;17.35;;;4.50;58.40;;;;;;5072153;28;20085;-49
2022/03/05 09:03:09;;;;;;;33.33;15.52;;;4.50;58.30;;;;;;5061189;28;20048;-53
2022/03/05 09:05:36;;;;;;;41.08;17.60;;;4.60;58.20;;;;;;5061711;28;20040;-53
2022/03/05 09:08:03;;;;;;;39.15;18.23;;;4.60;58.30;;;;;;5055538;28;20040;-55
2022/03/05 09:10:30;;;;;;;39.95;18.25;;;4.60;58.20;;;;;;5052565;28;20461;-50
2022/03/05 09:12:57;;;;;;;35.03;17.80;;;4.70;58.20;;;;;;5066989;28;20041;-51
2022/03/05 09:15:24;;;;;;;40.97;18.95;;;4.70;58.10;;;;;;5061488;28;20040;-54
2022/03/05 09:17:51;;;;;;;40.05;17.58;;;4.80;58.00;;;;;;5052933;28;20048;-50
2022/03/05 09:20:18;;;;;;;46.28;19.10;;;4.90;58.00;;;;;;5064143;28;20134;-50
2022/03/05 09:22:45;;;;;;;37.05;17.23;;;4.90;58.00;;;;;;5050456;28;20047;-54
2022/03/05 09:25:11;;;;;;;38.55;19.33;;;5.00;58.00;;;;;;5062643;28;20143;-54
2022/03/05 09:27:39;;;;;;;36.72;17.77;;;5.00;58.00;;;;;;5060605;28;20737;-55
2022/03/05 09:30:11;;;;;;;38.83;18.20;;;5.10;57.90;;;;;;5062745;28;20048;-51
2022/03/05 09:32:38;;;;;;;39.85;18.67;;;5.10;57.80;;;;;;5062832;28;20060;-54
2022/03/05 09:35:05;;;;;;;38.67;17.27;;;5.20;57.70;;;;;;5061827;28;20048;-53
2022/03/05 09:37:33;;;;;;;37.83;17.25;;;5.30;57.60;;;;;;5061393;28;20094;-54
2022/03/05 09:40:02;;;;;;;35.63;17.83;;;5.30;57.60;;;;;;5058844;28;20056;-50
2022/03/05 09:42:29;;;;;;;37.70;19.35;;;5.40;57.50;;;;;;5060420;28;20060;-54
2022/03/05 09:44:56;;;;;;;36.17;17.80;;;5.40;57.40;;;;;;5058458;28;20067;-50
2022/03/05 09:47:23;;;;;;;31.90;17.98;;;5.50;57.40;;;;;;5063862;28;20064;-50
2022/03/05 09:49:50;;;;;;;37.75;18.38;;;5.50;57.40;;;;;;5062976;28;20024;-51
2022/03/05 09:52:18;;;;;;;39.05;17.25;;;5.60;57.40;;;;;;5065832;28;20110;-54
2022/03/05 09:54:45;;;;;;;36.33;18.77;;;5.60;57.20;;;;;;5054317;28;20094;-53
2022/03/05 09:57:13;;;;;;;40.58;18.92;;;5.70;57.20;;;;;;5069853;28;20037;-49
2022/03/05 09:59:40;;;;;;;40.50;19.73;;;5.70;57.20;;;;;;5059587;28;20040;-53
2022/03/05 10:02:09;;;;;;;37.78;17.50;;;5.80;57.00;;;;;;5062481;28;20052;-49
2022/03/05 10:04:36;;;;;;;37.58;18.17;;;5.80;56.80;;;;;;5074958;28;20060;-53
2022/03/05 10:07:17;;;;;;;36.45;17.40;;;5.90;56.80;;;;;;5065102;28;20048;-51
2022/03/05 10:09:46;;;;;;;38.22;18.88;;;6.00;57.50;;;;;;5067517;28;20047;-51
2022/03/05 10:12:34;;;;;;;38.60;19.42;;;6.00;56.80;;;;;;5066021;28;20443;-52
2022/03/05 10:15:17;;;;;;;39.05;18.10;;;6.10;57.60;;;;;;5071635;28;20086;-52
2022/03/05 10:18:04;;;;;;;38.03;19.45;;;6.20;57.20;;;;;;5070593;28;20593;-51
2022/03/05 10:20:34;;;;;;;40.30;19.70;;;6.30;57.50;;;;;;5059394;28;20072;-55
2022/03/05 10:23:07;;;;;;;32.35;17.75;;;6.30;56.80;;;;;;5081189;28;20052;-52
2022/03/05 10:25:35;;;;;;;34.55;18.20;;;6.40;56.90;;;;;;5089074;28;20040;-49
2022/03/05 10:28:05;;;;;;;46.88;19.08;;;6.50;56.60;;;;;;5058463;28;20086;-52
2022/03/05 10:30:34;;;;;;;36.63;19.52;;;6.50;56.40;;;;;;5072944;28;20127;-51
2022/03/05 10:33:01;;;;;;;34.63;19.30;;;6.60;56.40;;;;;;5082077;28;20036;-51
2022/03/05 10:35:28;;;;;;;39.28;18.25;;;6.70;56.30;;;;;;5080407;28;20113;-51
2022/03/05 10:37:55;;;;;;;35.53;19.27;;;6.70;56.10;;;;;;5080949;28;20093;-51
2022/03/05 10:40:29;;;;;;;38.33;19.85;;;6.80;56.10;;;;;;5068459;28;20052;-54
2022/03/05 10:43:05;;;;;;;41.58;20.88;;;6.80;56.10;;;;;;5082756;28;20047;-54
2022/03/05 10:45:55;;;;;;;38.13;19.95;;;6.90;56.20;;;;;;5080112;28;20043;-51
2022/03/05 10:48:28;;;;;;;30.90;17.08;;;7.00;56.20;;;;;;5089316;28;20690;-52
2022/03/05 10:51:13;;;;;;;38.78;19.55;;;7.10;55.50;;;;;;5069229;28;20044;-52
2022/03/05 10:53:48;;;;;;;35.35;18.02;;;7.10;55.30;;;;;;5073184;28;20036;-50
2022/03/05 10:56:30;;;;;;;40.42;21.25;;;7.20;55.40;;;;;;5074432;28;20598;-52
2022/03/05 10:59:00;;;;;;;36.03;19.77;;;7.30;55.50;;;;;;5077792;28;20041;-50
2022/03/05 11:01:27;;;;;;;36.25;19.48;;;7.30;55.10;;;;;;5088152;28;20047;-51
2022/03/05 11:03:55;;;;;;;39.20;20.33;;;7.40;55.00;;;;;;5086923;28;20036;-50
2022/03/05 11:06:23;;;;;;;33.67;19.50;;;7.50;54.90;;;;;;5090485;28;20040;-53
2022/03/05 11:08:50;;;;;;;33.65;19.33;;;7.50;54.80;;;;;;5069375;28;20660;-53
2022/03/05 11:11:19;;;;;;;37.08;19.98;;;7.60;54.70;;;;;;5083808;28;20507;-51
2022/03/05 11:13:48;;;;;;;35.35;18.67;;;7.60;54.80;;;;;;5085455;28;20040;-53
2022/03/05 11:16:15;;;;;;;34.92;19.05;;;7.70;54.60;;;;;;5079545;28;20044;-51
2022/03/05 11:18:42;;;;;;;31.25;18.38;;;7.80;54.30;;;;;;5067367;28;20036;-50
2022/03/05 11:21:10;;;;;;;33.17;19.05;;;7.80;54.10;;;;;;5082383;28;20044;-49
2022/03/05 11:23:38;;;;;;;34.08;18.80;;;7.90;54.10;;;;;;5071964;28;20040;-53
2022/03/05 11:26:07;;;;;;;33.53;20.80;;;8.00;54.00;;;;;;5074615;28;20561;-52
2022/03/05 11:28:37;;;;;;;32.00;18.67;;;8.10;54.00;;;;;;5056780;28;20719;-55
2022/03/05 11:31:17;;;;;;;35.22;18.60;;;8.20;53.80;;;;;;5031722;28;20053;-51
2022/03/05 11:33:45;;;;;;;32.72;18.50;;;8.20;53.50;;;;;;5078408;28;20090;-55
2022/03/05 11:36:31;;;;;;;31.52;19.95;;;8.30;53.30;;;;;;5055998;28;20075;-54
2022/03/05 11:39:17;;;;;;;35.40;20.05;;;8.40;53.30;;;;;;5056766;28;20044;-56
2022/03/05 11:42:03;;;;;;;32.65;17.95;;;8.40;52.80;;;;;;5078878;28;20039;-51
2022/03/05 11:44:37;;;;;;;32.33;18.83;;;8.50;52.60;;;;;;5063336;28;20572;-51
2022/03/05 11:47:19;;;;;;;26.95;17.05;;;8.60;52.60;;;;;;5064212;28;20060;-53
2022/03/05 11:50:00;;;;;;;27.05;17.67;;;8.70;52.60;;;;;;5064690;28;20036;-54
2022/03/05 11:52:39;;;;;;;28.83;17.77;;;8.70;52.00;;;;;;5061080;28;20090;-54
2022/03/05 11:55:14;;;;;;;30.00;16.98;;;8.80;51.80;;;;;;5054809;28;20135;-54
2022/03/05 11:58:06;;;;;;;29.73;17.00;;;8.80;51.30;;;;;;5068906;28;20101;-52
2022/03/05 12:00:35;;;;;;;26.65;15.43;;;8.90;50.70;;;;;;5059926;28;20041;-54
2022/03/05 12:03:03;;;;;;;27.05;16.65;;;8.90;50.70;;;;;;5063225;28;20045;-54
2022/03/05 12:05:38;;;;;;;27.50;16.15;;;9.00;50.20;;;;;;5058771;28;20052;-53
2022/03/05 12:08:09;;;;;;;27.40;15.85;;;9.10;49.30;;;;;;5070984;28;20041;-50
2022/03/05 12:10:40;;;;;;;24.50;14.97;;;9.20;49.10;;;;;;5061818;28;20032;-52
2022/03/05 12:13:10;;;;;;;24.88;16.08;;;9.20;48.40;;;;;;5071213;28;20032;-54
2022/03/05 12:15:44;;;;;;;25.90;16.05;;;9.30;48.10;;;;;;5074475;28;20757;-52
2022/03/05 12:18:14;;;;;;;27.55;16.17;;;9.40;47.80;;;;;;5092080;28;20048;-52
2022/03/05 12:20:44;;;;;;;27.90;16.17;;;9.40;47.70;;;;;;5074089;28;20070;-54
2022/03/05 12:23:16;;;;;;;29.00;16.58;;;9.40;47.80;;;;;;5070199;28;20090;-52
2022/03/05 12:25:48;;;;;;;24.98;15.30;;;9.50;48.00;;;;;;5079347;28;20036;-55
2022/03/05 12:28:18;;;;;;;28.45;16.23;;;9.60;47.60;;;;;;5077585;28;20093;-50
2022/03/05 12:30:45;;;;;;;27.58;15.98;;;9.60;47.50;;;;;;5069126;28;20056;-50
2022/03/05 12:33:15;;;;;;;24.75;16.52;;;9.70;47.70;;;;;;5069653;28;20048;-50
2022/03/05 12:35:43;;;;;;;25.60;15.50;;;9.70;47.80;;;;;;5061676;28;20081;-53
2022/03/05 12:38:16;;;;;;;30.50;18.05;;;9.80;47.70;;;;;;5072420;28;20045;-54
2022/03/05 12:40:42;;;;;;;27.60;16.67;;;9.90;47.30;;;;;;5068377;28;20037;-52
2022/03/05 12:43:09;;;;;;;27.67;16.25;;;10.00;47.50;;;;;;5065474;28;20041;-51
2022/03/05 12:45:40;;;;;;;28.38;15.82;;;10.10;47.20;;;;;;5078870;28;20365;-52
2022/03/05 12:48:12;;;;;;;25.90;16.25;;;10.10;46.80;;;;;;5079661;28;20508;-50